createdAt,value
2023-03-16T00:00:14.168Z,72.96
2023-03-16T00:02:43.103Z,73.71
2023-03-16T00:05:12.990Z,73.43
2023-03-16T00:07:43.645Z,74.08
2023-03-16T00:10:13.784Z,74.53
2023-03-16T00:12:43.713Z,75.04
2023-03-16T00:15:12.614Z,75.37
2023-03-16T00:17:40.730Z,75.09
2023-03-16T00:20:10.122Z,75.75
2023-03-16T00:22:38.210Z,75.58
2023-03-16T00:25:08.844Z,76.24
2023-03-16T00:27:37.087Z,76.35
2023-03-16T00:30:06.320Z,76.23
2023-03-16T00:32:36.292Z,77.24
2023-03-16T00:35:09.236Z,77.53
2023-03-16T00:37:39.842Z,77.22
2023-03-16T00:40:12.201Z,77.97
2023-03-16T00:42:40.255Z,78.83
2023-03-16T00:45:09.859Z,79.59
2023-03-16T00:47:37.910Z,80.34
2023-03-16T00:50:06.664Z,80.78
2023-03-16T00:52:35.431Z,80.28
2023-03-16T00:55:04.933Z,81.54
2023-03-16T00:57:34.408Z,81.15
2023-03-16T01:00:12.772Z,81.68
2023-03-16T01:02:41.064Z,81.40
2023-03-16T01:05:10.494Z,81.70
2023-03-16T01:07:38.567Z,81.65
2023-03-16T01:10:07.889Z,81.33
2023-03-16T01:12:37.382Z,79.18
2023-03-16T01:15:07.178Z,77.03
2023-03-16T01:17:35.647Z,76.40
2023-03-16T01:20:08.174Z,75.83
2023-03-16T01:22:36.333Z,77.97
2023-03-16T01:25:05.714Z,77.42
2023-03-16T01:27:34.147Z,77.69
2023-03-16T01:30:03.766Z,77.88
2023-03-16T01:32:31.985Z,77.16
2023-03-16T01:35:00.228Z,78.08
2023-03-16T01:37:28.464Z,78.81
2023-03-16T01:40:17.193Z,79.92
2023-03-16T01:42:50.321Z,80.61
2023-03-16T01:46:05.170Z,79.82
2023-03-16T01:48:45.041Z,80.52
2023-03-16T01:51:21.106Z,80.25
2023-03-16T01:53:53.098Z,80.00
2023-03-16T01:56:26.691Z,80.87
2023-03-16T01:58:59.133Z,81.95
2023-03-16T02:01:28.715Z,81.86
2023-03-16T02:04:09.026Z,81.42
2023-03-16T02:06:38.361Z,81.75
2023-03-16T02:09:07.810Z,82.37
2023-03-16T02:11:36.632Z,82.67
2023-03-16T02:14:14.210Z,82.86
2023-03-16T02:16:43.858Z,83.25
2023-03-16T02:19:25.404Z,82.99
2023-03-16T02:22:02.240Z,83.88
2023-03-16T02:24:31.868Z,84.64
2023-03-16T02:27:04.780Z,83.80
2023-03-16T02:30:00.092Z,83.53
2023-03-16T02:32:33.553Z,83.21
2023-03-16T02:35:03.817Z,83.36
2023-03-16T02:37:33.932Z,82.98
2023-03-16T02:40:02.384Z,83.39
2023-03-16T02:42:31.542Z,84.27
2023-03-16T02:45:02.803Z,83.91
2023-03-16T02:47:38.441Z,84.19
2023-03-16T02:50:07.507Z,84.49
2023-03-16T02:52:38.112Z,84.70
2023-03-16T02:55:08.225Z,84.43
2023-03-16T02:57:36.456Z,85.50
2023-03-16T03:00:17.510Z,85.54
2023-03-16T03:02:47.672Z,85.79
2023-03-16T03:05:15.975Z,86.33
2023-03-16T03:07:44.171Z,86.32
2023-03-16T03:10:12.662Z,86.27
2023-03-16T03:12:40.793Z,86.48
2023-03-16T03:15:12.837Z,86.55
2023-03-16T03:17:48.787Z,88.76
2023-03-16T03:20:18.277Z,88.47
2023-03-16T03:22:48.920Z,89.93
2023-03-16T03:25:18.719Z,90.27
2023-03-16T03:27:48.284Z,90.38
2023-03-16T03:30:21.902Z,89.97
2023-03-16T03:32:50.438Z,90.60
2023-03-16T03:35:21.404Z,91.08
2023-03-16T03:37:49.658Z,91.30
2023-03-16T03:40:20.013Z,91.39
2023-03-16T03:42:52.524Z,91.91
2023-03-16T03:45:22.151Z,92.16
2023-03-16T03:47:50.957Z,92.39
2023-03-16T03:50:22.518Z,92.75
2023-03-16T03:53:13.577Z,92.01
2023-03-16T03:56:01.673Z,92.12
2023-03-16T03:58:29.824Z,92.82
2023-03-16T04:00:59.409Z,93.62
2023-03-16T04:03:27.812Z,92.84
2023-03-16T04:05:57.541Z,93.59
2023-03-16T04:08:25.750Z,93.99
2023-03-16T04:10:54.133Z,94.25
2023-03-16T04:13:22.986Z,93.74
2023-03-16T04:15:54.372Z,94.15
2023-03-16T04:18:27.262Z,95.58
2023-03-16T04:20:55.749Z,94.76
2023-03-16T04:23:26.177Z,94.64
2023-03-16T04:25:55.616Z,94.50
2023-03-16T04:28:26.496Z,94.36
2023-03-16T04:30:55.186Z,94.43
2023-03-16T04:33:30.499Z,94.66
2023-03-16T04:35:58.828Z,94.94
2023-03-16T04:38:27.882Z,95.15
2023-03-16T04:40:58.514Z,96.00
2023-03-16T04:43:34.565Z,95.47
2023-03-16T04:46:09.383Z,95.89
2023-03-16T04:48:39.351Z,95.63
2023-03-16T04:51:07.939Z,96.34
2023-03-16T04:53:39.799Z,96.05
2023-03-16T04:56:19.814Z,96.97
2023-03-16T04:58:53.815Z,97.24
2023-03-16T05:01:26.677Z,97.24
2023-03-16T05:03:59.867Z,98.58
2023-03-16T05:06:29.417Z,98.37
2023-03-16T05:09:01.224Z,99.02
2023-03-16T05:11:30.859Z,99.09
2023-03-16T05:14:02.567Z,99.64
2023-03-16T05:16:33.612Z,99.96
2023-03-16T05:19:03.443Z,100.00
2023-03-16T05:21:35.310Z,100.00
2023-03-16T05:24:06.321Z,100.00
2023-03-16T05:26:34.908Z,100.00
2023-03-16T05:29:03.549Z,99.88
2023-03-16T05:31:33.392Z,99.43
2023-03-16T05:34:05.463Z,99.07
2023-03-16T05:36:35.976Z,99.68
2023-03-16T05:39:09.728Z,99.70
2023-03-16T05:41:42.197Z,100.00
2023-03-16T05:44:22.227Z,98.60
2023-03-16T05:47:16.265Z,97.35
2023-03-16T05:49:50.458Z,95.96
2023-03-16T05:52:33.941Z,96.33
2023-03-16T05:55:07.802Z,96.78
2023-03-16T05:57:36.367Z,96.72
2023-03-16T06:00:12.640Z,95.51
2023-03-16T06:02:40.739Z,95.07
2023-03-16T06:05:11.691Z,93.99
2023-03-16T06:07:42.848Z,94.46
2023-03-16T06:10:13.795Z,92.98
2023-03-16T06:12:42.507Z,91.63
2023-03-16T06:15:12.063Z,89.54
2023-03-16T06:17:41.565Z,88.27
2023-03-16T06:20:14.929Z,87.42
2023-03-16T06:22:45.815Z,85.28
2023-03-16T06:25:15.672Z,82.32
2023-03-16T06:27:45.838Z,81.37
2023-03-16T06:30:18.141Z,78.07
2023-03-16T06:32:46.532Z,76.42
2023-03-16T06:35:16.894Z,75.15
2023-03-16T06:37:59.468Z,73.04
2023-03-16T06:40:46.002Z,71.74
2023-03-16T06:43:14.096Z,71.01
2023-03-16T06:45:44.733Z,69.85
2023-03-16T06:48:13.517Z,69.43
2023-03-16T06:50:43.966Z,66.72
2023-03-16T06:53:12.161Z,65.32
2023-03-16T06:55:41.625Z,64.41
2023-03-16T06:58:09.876Z,60.13
2023-03-16T07:00:38.172Z,54.91
2023-03-16T07:03:06.885Z,48.82
2023-03-16T07:05:36.072Z,45.79
2023-03-16T07:08:06.610Z,43.41
2023-03-16T07:10:34.812Z,41.04
2023-03-16T07:13:02.918Z,41.41
2023-03-16T07:15:31.427Z,40.54
2023-03-16T07:18:00.222Z,39.82
2023-03-16T07:20:31.616Z,38.84
2023-03-16T07:23:01.926Z,38.58
2023-03-16T07:25:32.215Z,38.81
2023-03-16T07:28:01.866Z,42.56
2023-03-16T07:30:34.984Z,39.93
2023-03-16T07:33:03.242Z,38.09
2023-03-16T07:35:33.448Z,34.30
2023-03-16T07:38:01.696Z,32.82
2023-03-16T07:40:31.789Z,31.04
2023-03-16T07:43:07.761Z,29.72
2023-03-16T07:45:37.783Z,31.16
2023-03-16T07:48:06.048Z,28.65
2023-03-16T07:50:49.232Z,26.48
2023-03-16T07:53:17.796Z,28.45
2023-03-16T07:55:52.575Z,28.24
2023-03-16T07:58:21.132Z,28.90
2023-03-16T08:00:51.287Z,26.63
2023-03-16T08:03:20.949Z,26.40
2023-03-16T08:05:49.478Z,28.54
2023-03-16T08:08:18.338Z,27.82
2023-03-16T08:10:48.906Z,26.93
2023-03-16T08:13:22.468Z,28.05
2023-03-16T08:15:58.520Z,26.44
2023-03-16T08:18:36.836Z,26.46
2023-03-16T08:21:05.133Z,26.67
2023-03-16T08:23:33.781Z,25.29
2023-03-16T08:26:03.101Z,25.02
2023-03-16T08:28:32.828Z,25.26
2023-03-16T08:31:03.300Z,27.11
2023-03-16T08:33:41.941Z,25.24
2023-03-16T08:36:15.485Z,25.41
2023-03-16T08:39:03.814Z,25.32
2023-03-16T08:41:37.235Z,24.62
2023-03-16T08:44:13.075Z,25.10
2023-03-16T08:46:42.521Z,24.08
2023-03-16T08:49:11.095Z,22.29
2023-03-16T08:51:39.370Z,21.45
2023-03-16T08:54:07.489Z,21.72
2023-03-16T08:56:35.632Z,21.76
2023-03-16T08:59:03.776Z,21.73
2023-03-16T09:01:34.182Z,21.79
2023-03-16T09:04:03.410Z,22.18
2023-03-16T09:06:32.360Z,20.88
2023-03-16T09:09:00.573Z,21.45
2023-03-16T09:11:30.741Z,22.00
2023-03-16T09:13:59.072Z,20.45
2023-03-16T09:16:28.242Z,20.80
2023-03-16T09:18:58.649Z,20.65
2023-03-16T09:21:26.993Z,20.82
2023-03-16T09:23:56.294Z,19.71
2023-03-16T09:26:24.439Z,19.02
2023-03-16T09:28:52.514Z,19.20
2023-03-16T09:31:21.912Z,20.38
2023-03-16T09:33:50.065Z,19.46
2023-03-16T09:36:20.595Z,20.72
2023-03-16T09:38:49.491Z,22.07
2023-03-16T09:41:32.290Z,21.46
2023-03-16T09:44:07.327Z,19.80
2023-03-16T09:46:39.746Z,19.29
2023-03-16T09:49:07.973Z,20.21
2023-03-16T09:51:45.949Z,19.33
2023-03-16T09:54:24.493Z,17.26
2023-03-16T09:56:55.377Z,17.68
2023-03-16T09:59:23.725Z,18.39
2023-03-16T10:02:07.590Z,17.19
2023-03-16T10:04:46.235Z,16.44
2023-03-16T10:07:26.055Z,15.81
2023-03-16T10:09:58.932Z,16.23
2023-03-16T10:12:33.063Z,17.07
2023-03-16T10:15:07.431Z,18.19
2023-03-16T10:17:41.681Z,17.17
2023-03-16T10:20:17.538Z,19.51
2023-03-16T10:22:48.261Z,18.92
2023-03-16T10:25:23.034Z,17.77
2023-03-16T10:27:51.820Z,16.73
2023-03-16T10:30:28.697Z,18.51
2023-03-16T10:33:01.692Z,17.82
2023-03-16T10:35:42.851Z,17.95
2023-03-16T10:38:29.252Z,15.71
2023-03-16T10:40:57.941Z,16.94
2023-03-16T10:43:26.494Z,15.78
2023-03-16T10:46:02.419Z,16.54
2023-03-16T10:48:34.268Z,15.09
2023-03-16T10:51:08.223Z,15.68
2023-03-16T10:53:42.641Z,16.46
2023-03-16T10:56:14.017Z,15.92
2023-03-16T10:58:44.360Z,14.58
2023-03-16T11:01:14.016Z,17.71
2023-03-16T11:03:43.024Z,16.89
2023-03-16T11:06:22.600Z,15.20
2023-03-16T11:08:53.908Z,13.67
2023-03-16T11:11:28.491Z,14.67
2023-03-16T11:13:59.678Z,15.79
2023-03-16T11:16:33.199Z,16.90
2023-03-16T11:19:07.233Z,16.44
2023-03-16T11:21:46.708Z,17.93
2023-03-16T11:24:24.255Z,15.90
2023-03-16T11:26:57.188Z,16.41
2023-03-16T11:29:29.984Z,15.20
2023-03-16T11:32:02.510Z,14.97
2023-03-16T11:34:32.331Z,14.88
2023-03-16T11:37:13.628Z,15.91
2023-03-16T11:39:56.465Z,15.38
2023-03-16T11:42:31.287Z,14.98
2023-03-16T11:45:10.150Z,15.79
2023-03-16T11:48:11.050Z,16.35
2023-03-16T11:50:51.789Z,17.15
2023-03-16T11:53:33.859Z,16.70
2023-03-16T11:56:15.945Z,17.00
2023-03-16T11:59:09.953Z,17.66
2023-03-16T12:02:00.819Z,17.71
2023-03-16T12:04:59.827Z,15.91
2023-03-16T12:07:47.868Z,14.18
2023-03-16T12:10:26.652Z,16.37
2023-03-16T12:13:08.032Z,14.67
2023-03-16T12:15:45.073Z,15.38
2023-03-16T12:18:18.319Z,13.05
2023-03-16T12:20:53.652Z,13.01
2023-03-16T12:23:27.948Z,13.14
2023-03-16T12:26:00.034Z,14.28
2023-03-16T12:28:31.934Z,16.27
2023-03-16T12:31:09.469Z,17.09
2023-03-16T12:33:55.010Z,16.56
2023-03-16T12:36:45.737Z,15.73
2023-03-16T12:39:23.674Z,15.35
2023-03-16T12:42:04.898Z,14.39
2023-03-16T12:44:41.176Z,15.44
2023-03-16T12:47:19.749Z,16.98
2023-03-16T12:49:48.104Z,15.84
2023-03-16T12:52:16.264Z,16.88
2023-03-16T12:54:54.971Z,16.90
2023-03-16T12:57:27.231Z,17.22
2023-03-16T13:00:02.029Z,16.18
2023-03-16T13:02:32.256Z,15.52
2023-03-16T13:05:02.882Z,14.63
2023-03-16T13:07:33.456Z,15.22
2023-03-16T13:10:08.784Z,14.68
2023-03-16T13:12:38.883Z,16.03
2023-03-16T13:15:31.725Z,14.24
2023-03-16T13:18:22.234Z,16.23
2023-03-16T13:20:59.056Z,15.51
2023-03-16T13:23:30.204Z,15.34
2023-03-16T13:26:09.176Z,14.48
2023-03-16T13:28:38.867Z,14.03
2023-03-16T13:31:22.675Z,13.81
2023-03-16T13:33:54.588Z,14.30
2023-03-16T13:36:23.370Z,14.21
2023-03-16T13:39:04.393Z,14.67
2023-03-16T13:41:32.639Z,14.96
2023-03-16T13:44:00.742Z,14.30
2023-03-16T13:46:31.455Z,15.13
2023-03-16T13:49:01.353Z,16.14
2023-03-16T13:51:35.013Z,16.56
2023-03-16T13:54:06.444Z,16.30
2023-03-16T13:56:35.160Z,16.87
2023-03-16T13:59:04.030Z,15.91
2023-03-16T14:01:33.688Z,16.09
2023-03-16T14:04:08.959Z,16.36
2023-03-16T14:06:38.539Z,17.54
2023-03-16T14:09:09.403Z,16.76
2023-03-16T14:11:37.657Z,17.49
2023-03-16T14:14:16.027Z,16.95
2023-03-16T14:16:45.837Z,16.97
2023-03-16T14:19:20.386Z,17.36
2023-03-16T14:21:48.702Z,17.33
2023-03-16T14:24:31.063Z,17.49
2023-03-16T14:26:59.456Z,17.65
2023-03-16T14:29:31.541Z,17.87
2023-03-16T14:32:01.244Z,19.29
2023-03-16T14:34:32.596Z,18.43
2023-03-16T14:37:09.457Z,18.76
2023-03-16T14:39:37.912Z,17.87
2023-03-16T14:42:07.737Z,17.06
2023-03-16T14:44:38.528Z,17.30
2023-03-16T14:47:08.803Z,16.82
2023-03-16T14:49:41.515Z,17.25
2023-03-16T14:52:24.202Z,19.46
2023-03-16T14:54:53.627Z,18.87
2023-03-16T14:57:22.234Z,18.79
2023-03-16T14:59:50.549Z,19.39
2023-03-16T15:02:23.598Z,20.42
2023-03-16T15:04:52.673Z,21.26
2023-03-16T15:07:26.417Z,20.30
2023-03-16T15:09:55.857Z,21.70
2023-03-16T15:12:26.337Z,22.14
2023-03-16T15:15:12.414Z,21.05
2023-03-16T15:17:43.550Z,22.74
2023-03-16T15:20:13.668Z,22.72
2023-03-16T15:22:42.262Z,22.99
2023-03-16T15:25:23.079Z,22.61
2023-03-16T15:27:52.792Z,22.57
2023-03-16T15:30:22.965Z,22.18
2023-03-16T15:32:52.819Z,23.78
2023-03-16T15:35:21.855Z,22.78
2023-03-16T15:37:50.582Z,22.74
2023-03-16T15:40:22.029Z,23.10
2023-03-16T15:42:50.500Z,23.79
2023-03-16T15:45:20.815Z,24.32
2023-03-16T15:47:49.745Z,24.37
2023-03-16T15:50:22.024Z,24.60
2023-03-16T15:52:54.087Z,24.58
2023-03-16T15:55:24.340Z,25.02
2023-03-16T15:57:59.100Z,24.13
2023-03-16T16:00:32.003Z,24.64
2023-03-16T16:03:01.418Z,24.94
2023-03-16T16:05:31.844Z,25.08
2023-03-16T16:08:01.316Z,25.28
2023-03-16T16:10:29.861Z,25.25
2023-03-16T16:12:58.633Z,25.63
2023-03-16T16:15:29.752Z,26.21
2023-03-16T16:18:19.953Z,26.03
2023-03-16T16:20:49.324Z,26.11
2023-03-16T16:23:18.180Z,26.08
2023-03-16T16:25:46.741Z,26.55
2023-03-16T16:28:17.769Z,26.65
2023-03-16T16:30:46.456Z,26.58
2023-03-16T16:33:25.933Z,27.48
2023-03-16T16:35:57.078Z,27.34
2023-03-16T16:38:26.313Z,27.69
2023-03-16T16:40:58.112Z,27.43
2023-03-16T16:43:33.489Z,27.63
2023-03-16T16:46:04.776Z,28.43
2023-03-16T16:48:36.719Z,28.94
2023-03-16T16:51:08.796Z,28.78
2023-03-16T16:53:37.194Z,29.50
2023-03-16T16:56:12.018Z,29.82
2023-03-16T16:58:40.711Z,29.28
2023-03-16T17:01:17.242Z,29.54
2023-03-16T17:03:46.290Z,30.27
2023-03-16T17:06:19.405Z,31.77
2023-03-16T17:08:49.106Z,30.30
2023-03-16T17:11:22.447Z,30.95
2023-03-16T17:13:51.538Z,31.04
2023-03-16T17:16:22.862Z,31.23
2023-03-16T17:18:51.764Z,32.60
2023-03-16T17:21:24.400Z,32.19
2023-03-16T17:23:53.802Z,32.69
2023-03-16T17:26:24.550Z,32.45
2023-03-16T17:28:58.052Z,33.72
2023-03-16T17:31:31.194Z,32.49
2023-03-16T17:34:00.421Z,32.64
2023-03-16T17:36:30.896Z,33.50
2023-03-16T17:39:03.489Z,35.09
2023-03-16T17:41:33.274Z,35.73
2023-03-16T17:44:06.200Z,35.77
2023-03-16T17:46:35.676Z,34.55
2023-03-16T17:49:12.476Z,35.39
2023-03-16T17:51:45.295Z,36.29
2023-03-16T17:54:19.371Z,36.43
2023-03-16T17:56:51.455Z,36.34
2023-03-16T17:59:23.113Z,37.15
2023-03-16T18:01:52.637Z,36.14
2023-03-16T18:04:24.602Z,38.30
2023-03-16T18:06:56.053Z,37.33
2023-03-16T18:09:24.997Z,36.50
2023-03-16T18:11:55.137Z,38.11
2023-03-16T18:14:36.006Z,38.62
2023-03-16T18:17:15.759Z,39.87
2023-03-16T18:19:46.140Z,39.84
2023-03-16T18:22:23.119Z,40.27
2023-03-16T18:24:56.028Z,41.22
2023-03-16T18:27:26.492Z,41.67
2023-03-16T18:29:56.620Z,42.24
2023-03-16T18:32:28.699Z,43.34
2023-03-16T18:35:02.249Z,43.89
2023-03-16T18:37:35.933Z,44.79
2023-03-16T18:40:05.550Z,45.81
2023-03-16T18:42:38.075Z,45.63
2023-03-16T18:45:11.776Z,45.64
2023-03-16T18:47:45.333Z,46.28
2023-03-16T18:50:22.057Z,46.52
2023-03-16T18:52:55.179Z,47.79
2023-03-16T18:55:29.220Z,47.87
2023-03-16T18:58:01.300Z,48.45
2023-03-16T19:00:32.958Z,49.52
2023-03-16T19:03:03.653Z,50.01
2023-03-16T19:05:38.551Z,49.99
2023-03-16T19:08:15.149Z,49.22
2023-03-16T19:10:51.362Z,48.93
2023-03-16T19:13:23.883Z,49.56
2023-03-16T19:15:55.597Z,48.96
2023-03-16T19:18:29.967Z,50.67
2023-03-16T19:21:02.508Z,51.53
2023-03-16T19:23:38.754Z,52.29
2023-03-16T19:26:08.804Z,51.65
2023-03-16T19:28:42.722Z,52.58
2023-03-16T19:31:21.213Z,52.91
2023-03-16T19:33:53.733Z,53.78
2023-03-16T19:36:25.876Z,53.91
2023-03-16T19:38:57.465Z,54.17
2023-03-16T19:41:30.514Z,54.02
2023-03-16T19:44:09.039Z,54.07
2023-03-16T19:46:39.635Z,55.18
2023-03-16T19:49:18.239Z,53.53
2023-03-16T19:51:48.666Z,53.38
2023-03-16T19:54:26.599Z,54.35
2023-03-16T19:56:58.747Z,54.56
2023-03-16T19:59:34.194Z,55.62
2023-03-16T20:02:04.940Z,55.39
2023-03-16T20:04:35.043Z,55.57
2023-03-16T20:07:09.065Z,56.19
2023-03-16T20:09:43.463Z,56.36
2023-03-16T20:12:24.390Z,55.98
2023-03-16T20:14:57.346Z,56.58
2023-03-16T20:17:30.299Z,57.46
2023-03-16T20:20:00.675Z,57.28
2023-03-16T20:22:30.240Z,57.02
2023-03-16T20:25:02.714Z,57.60
2023-03-16T20:27:34.412Z,56.87
2023-03-16T20:30:04.572Z,57.81
2023-03-16T20:32:39.811Z,58.06
2023-03-16T20:35:19.922Z,58.22
2023-03-16T20:37:50.498Z,58.62
2023-03-16T20:40:28.982Z,59.02
2023-03-16T20:42:58.724Z,59.08
2023-03-16T20:45:31.253Z,59.68
2023-03-16T20:48:00.819Z,59.48
2023-03-16T20:50:31.594Z,60.02
2023-03-16T20:53:00.877Z,59.86
2023-03-16T20:55:33.377Z,59.96
2023-03-16T20:58:04.732Z,59.15
2023-03-16T21:00:37.376Z,58.65
2023-03-16T21:03:15.778Z,59.11
2023-03-16T21:05:44.929Z,58.83
2023-03-16T21:08:14.238Z,59.08
2023-03-16T21:10:46.486Z,58.75
2023-03-16T21:13:20.611Z,59.99
2023-03-16T21:15:50.955Z,59.41
2023-03-16T21:18:22.117Z,60.39
2023-03-16T21:20:52.547Z,60.09
2023-03-16T21:23:23.395Z,59.58
2023-03-16T21:25:56.044Z,59.49
2023-03-16T21:28:25.557Z,60.72
2023-03-16T21:30:56.222Z,59.77
2023-03-16T21:33:30.629Z,60.01
2023-03-16T21:35:59.269Z,61.15
2023-03-16T21:38:28.775Z,61.63
2023-03-16T21:40:59.405Z,61.73
2023-03-16T21:43:28.789Z,61.70
2023-03-16T21:45:57.518Z,61.88
2023-03-16T21:48:29.741Z,61.42
2023-03-16T21:50:58.458Z,61.33
2023-03-16T21:53:29.260Z,61.80
2023-03-16T21:55:59.042Z,61.37
2023-03-16T21:58:28.140Z,61.07
2023-03-16T22:00:58.233Z,62.80
2023-03-16T22:03:37.860Z,62.75
2023-03-16T22:06:16.091Z,62.93
2023-03-16T22:08:44.326Z,63.34
2023-03-16T22:11:18.063Z,63.02
2023-03-16T22:13:46.567Z,63.57
2023-03-16T22:16:16.535Z,61.81
2023-03-16T22:18:47.129Z,61.68
2023-03-16T22:21:30.403Z,62.16
2023-03-16T22:23:59.732Z,62.06
2023-03-16T22:26:30.855Z,61.80
2023-03-16T22:29:00.689Z,63.06
2023-03-16T22:31:33.852Z,63.26
2023-03-16T22:34:03.157Z,62.67
2023-03-16T22:36:32.415Z,63.29
2023-03-16T22:39:03.159Z,63.24
2023-03-16T22:41:33.024Z,63.42
2023-03-16T22:44:01.758Z,64.40
2023-03-16T22:46:30.640Z,64.36
2023-03-16T22:48:59.049Z,64.38
2023-03-16T22:51:29.694Z,64.43
2023-03-16T22:54:00.529Z,64.52
2023-03-16T22:56:30.699Z,65.35
2023-03-16T22:59:03.379Z,65.78
2023-03-16T23:01:35.232Z,65.46
2023-03-16T23:04:03.782Z,65.82
2023-03-16T23:06:33.415Z,65.88
2023-03-16T23:09:02.404Z,66.77
2023-03-16T23:11:33.261Z,66.51
2023-03-16T23:14:03.445Z,66.54
2023-03-16T23:16:35.353Z,66.56
2023-03-16T23:19:07.650Z,66.44
2023-03-16T23:21:40.639Z,67.48
2023-03-16T23:24:09.268Z,67.33
2023-03-16T23:26:37.828Z,67.58
2023-03-16T23:29:08.115Z,67.68
2023-03-16T23:31:36.220Z,67.10
2023-03-16T23:34:11.171Z,67.36
2023-03-16T23:36:39.392Z,67.08
2023-03-16T23:39:07.659Z,67.96
2023-03-16T23:41:36.368Z,68.08
2023-03-16T23:44:05.858Z,68.64
2023-03-16T23:46:36.691Z,68.01
2023-03-16T23:49:06.561Z,67.94
2023-03-16T23:51:38.285Z,67.90
2023-03-16T23:54:21.958Z,68.05
2023-03-16T23:56:50.801Z,68.51
2023-03-16T23:59:20.999Z,68.26
